Zenith Leader — 2ACU6 — position and weather

sailwx.info

Track history (hours):
 
Tides and Currents Weather Stations Pressure Air Temp Water Temp Dewpoint Dewpoint Depression Visibility Wind Speed Wind Dir Waves Ship Positions

Zenith Leader

Last reported at 2016-Aug-12 03:13 UTC. Time now 2016-Aug-27 09:53 UTC.
Position N 35°30' W 127°26'.
Warning: this ship's position is 15 days out of date.

Length 200 m; draft 8 m.

Type: Cargo ship. MMSI: 235058697.

Date/timePositionNaut miles runAvg speedWind from/ knotsBaromVisibWave heightAir tempDewpointWater temp
2016-Aug-12 03:13N 35°30' W 127°26'21014.8
2016-Aug-11 13:03N 34°26' W 123°22'1015.7
2016-Aug-11 12:27N 34°26' W 123°10'1415.7
2016-Aug-11 11:33N 34°26' W 122°53'2015.7
2016-Aug-11 10:15N 34°26' W 122°29'1315.6
2016-Aug-11 09:27N 34°26' W 122°13'3315.4
2016-Aug-11 07:19N 34°26' W 121°34'1215.6
2016-Aug-11 06:33N 34°26' W 121°19'1615.8
2016-Aug-11 05:33N 34°26' W 120°60'1515.4
2016-Aug-11 04:33N 34°24' W 120°41'1515.0
2016-Aug-11 03:33N 34°20' W 120°24'1515.4
2016-Aug-11 02:33N 34°16' W 120°06'1515.5
2016-Aug-11 01:33N 34°12' W 119°48'1515.4
2016-Aug-11 00:33N 34°08' W 119°30'1313.0
2016-Aug-10 23:33N 34°07' W 119°14'2 1.9
2016-Aug-10 22:26N 34°09' W 119°12'0 0.0
2016-Aug-10 21:32N 34°09' W 119°12'0 0.0
2016-Aug-10 20:32N 34°09' W 119°12'0 0.0
2016-Aug-10 19:32N 34°09' W 119°12'0 0.0
2016-Aug-10 18:32N 34°09' W 119°12'0 0.0
2016-Aug-10 17:32N 34°09' W 119°12'0 0.0
2016-Aug-10 16:32N 34°09' W 119°12'0 0.0
2016-Aug-10 15:23N 34°09' W 119°12'0 0.0
2016-Aug-10 14:32N 34°09' W 119°12'0 0.0
2016-Aug-10 13:29N 34°09' W 119°12'0 0.0
2016-Aug-10 12:32N 34°09' W 119°12'0 0.0
2016-Aug-10 11:32N 34°09' W 119°12'0 0.0
2016-Aug-10 10:32N 34°09' W 119°12'0 0.0
2016-Aug-10 09:32N 34°09' W 119°12'0 0.0
2016-Aug-10 08:32N 34°09' W 119°12'0 0.0
2016-Aug-10 07:32N 34°09' W 119°12'0 0.0
2016-Aug-10 06:32N 34°09' W 119°12'0 0.0
2016-Aug-10 05:32N 34°09' W 119°12'0 0.0
2016-Aug-10 04:32N 34°09' W 119°12'0 0.0
2016-Aug-10 03:32N 34°09' W 119°12'0 0.0
2016-Aug-10 02:32N 34°09' W 119°12'0 0.0
2016-Aug-10 01:32N 34°09' W 119°12'0 0.1
2016-Aug-10 00:34N 34°09' W 119°12'5 4.6
2016-Aug-09 23:34N 34°05' W 119°14'7 6.6
2016-Aug-09 22:34N 34°01' W 119°08'8 8.0
2016-Aug-09 21:34N 33°57' W 118°59'8 7.9
2016-Aug-09 20:33N 33°53' W 118°51'7 6.9
2016-Aug-09 19:33N 33°49' W 118°44'8 8.2
2016-Aug-09 18:34N 33°45' W 118°35'9 8.8
2016-Aug-09 17:34N 33°41' W 118°26'9 8.7
2016-Aug-09 16:33N 33°38' W 118°16'8 8.3
2016-Aug-09 15:33N 33°33' W 118°08'9 9.3
2016-Aug-09 14:34N 33°24' W 118°05'9 9.3
2016-Aug-09 13:34N 33°15' W 118°02'9 9.2
2016-Aug-09 12:34N 33°06' W 117°60'8 8.2
2016-Aug-09 11:34N 32°58' W 117°58'0 0.4
2016-Aug-09 10:33N 32°58' W 117°58'0 0.4
2016-Aug-09 09:33N 32°58' W 117°57'1 0.5
2016-Aug-09 08:33N 32°58' W 117°57'1 0.5
2016-Aug-09 07:33N 32°58' W 117°56'1 0.3
2016-Aug-09 05:33N 32°57' W 117°55'0 0.0
2016-Aug-09 04:33N 32°57' W 117°55'0 0.1
2016-Aug-09 03:33N 32°57' W 117°56'0 0.4
2016-Aug-09 02:33N 32°57' W 117°56'1 0.6
2016-Aug-09 01:33N 32°58' W 117°57'2 1.8
2016-Aug-09 00:34N 32°58' W 117°54'6 6.2
2016-Aug-08 23:33N 32°59' W 117°47'1 0.8
2016-Aug-08 22:33N 32°59' W 117°48'1 0.8
2016-Aug-08 21:33N 32°59' W 117°49'1 1.0
2016-Aug-08 20:33N 32°59' W 117°50'1 1.3
2016-Aug-08 19:33N 32°59' W 117°52'1 1.5
2016-Aug-08 18:33N 32°59' W 117°54'1 1.3
2016-Aug-08 17:33N 32°58' W 117°55'1 1.0
2016-Aug-08 16:33N 32°58' W 117°56'6 5.7
2016-Aug-08 15:33N 32°55' W 117°50'2 2.3
2016-Aug-08 14:32N 32°54' W 117°48'1 0.6
2016-Aug-08 13:32N 32°54' W 117°48'1 0.6
2016-Aug-08 12:32N 32°54' W 117°49'0 0.5
2016-Aug-08 11:32N 32°53' W 117°49'0 0.3
2016-Aug-08 10:32N 32°53' W 117°50'1 0.6
2016-Aug-08 09:29N 32°53' W 117°50'1 0.7
2016-Aug-08 08:32N 32°52' W 117°50'1 0.7
2016-Aug-08 07:32N 32°51' W 117°50'1 0.6
2016-Aug-08 06:32N 32°51' W 117°50'0 0.3
2016-Aug-08 05:32N 32°51' W 117°50'0 0.4
2016-Aug-08 04:32N 32°50' W 117°50'0 0.3
2016-Aug-08 03:32N 32°50' W 117°50'1 0.6
2016-Aug-08 02:32N 32°50' W 117°49'1 0.8
2016-Aug-08 01:32N 32°51' W 117°49'1 0.8
2016-Aug-08 00:32N 32°52' W 117°49'1 0.8
2016-Aug-07 23:32N 32°53' W 117°50'1 0.9
2016-Aug-07 22:32N 32°53' W 117°50'1 0.9
2016-Aug-07 21:29N 32°54' W 117°51'1 0.9
2016-Aug-07 20:32N 32°55' W 117°52'1 1.1
2016-Aug-07 19:32N 32°55' W 117°53'1 0.9
2016-Aug-07 18:32N 32°56' W 117°54'1 0.7
2016-Aug-07 17:29N 32°56' W 117°55'1 0.7
2016-Aug-07 16:29N 32°56' W 117°55'1 0.6
2016-Aug-07 15:32N 32°56' W 117°56'1 0.8
2016-Aug-07 14:32N 32°56' W 117°57'1 0.8
2016-Aug-07 13:32N 32°56' W 117°58'1 0.6
2016-Aug-07 12:32N 32°57' W 117°59'1 0.5
2016-Aug-07 11:32N 32°57' W 117°59'0 0.3
2016-Aug-07 10:29N 32°57' W 117°59'0 0.2
2016-Aug-07 09:32N 32°57' W 117°60'0 0.2
2016-Aug-07 08:32N 32°57' W 117°60'0 0.4
2016-Aug-07 07:31N 32°58' W 117°59'1 0.6
2016-Aug-07 06:32N 32°58' W 117°59'1 0.6
2016-Aug-07 04:32N 32°60' W 117°59'0 0.4
2016-Aug-07 03:32N 32°60' W 117°59'3 3.4
2016-Aug-07 02:33N 32°58' W 117°56'1212.2
2016-Aug-07 01:33N 32°51' W 117°44'1 0.7
2016-Aug-07 00:33N 32°51' W 117°43'1 0.9
2016-Aug-06 23:33N 32°52' W 117°44'2 1.9
2016-Aug-06 22:33N 32°53' W 117°45'2 2.2
2016-Aug-06 21:33N 32°55' W 117°46'2 1.8
2016-Aug-06 20:33N 32°57' W 117°48'1 1.3
2016-Aug-06 19:33N 32°57' W 117°49'1 1.4
2016-Aug-06 18:33N 32°58' W 117°50'1 1.4
2016-Aug-06 17:33N 32°59' W 117°52'1 1.2
2016-Aug-06 16:33N 32°59' W 117°53'7 7.0
2016-Aug-06 15:33N 32°56' W 117°45'7 7.0
2016-Aug-06 14:32N 32°56' W 117°37'1 1.1
2016-Aug-06 13:32N 32°56' W 117°38'1 1.4
2016-Aug-06 12:32N 32°55' W 117°39'1 1.4
2016-Aug-06 11:32N 32°55' W 117°41'1 1.3
2016-Aug-06 10:32N 32°55' W 117°43'1 1.3
2016-Aug-06 09:32N 32°56' W 117°44'1 1.1
2016-Aug-06 08:32N 32°56' W 117°46'1 0.7
2016-Aug-06 07:32N 32°55' W 117°46'3 1.0
2016-Aug-06 04:34N 32°58' W 117°49'1010.2
2016-Aug-06 03:34N 33°06' W 117°55'9 9.4
2016-Aug-06 02:34N 33°14' W 118°02'9 9.3
2016-Aug-06 01:34N 33°22' W 118°08'20 6.7
2016-Aug-05 22:33N 33°42' W 118°08'0 0.0
2016-Aug-05 20:33N 33°42' W 118°08'0 0.0
2016-Aug-05 19:33N 33°42' W 118°08'0 0.0
2016-Aug-05 18:33N 33°42' W 118°08'0 0.0
2016-Aug-05 17:33N 33°42' W 118°08'0 0.0
2016-Aug-05 16:30N 33°42' W 118°08'0 0.0
2016-Aug-05 15:33N 33°42' W 118°08'0 0.0
2016-Aug-05 14:33N 33°42' W 118°08'0 0.0
2016-Aug-05 13:33N 33°42' W 118°08'0 0.0
2016-Aug-05 12:33N 33°42' W 118°08'0 0.1
2016-Aug-05 11:33N 33°42' W 118°08'0 0.0
2016-Aug-05 10:33N 33°42' W 118°08'0 0.0
2016-Aug-05 09:33N 33°42' W 118°08'0 0.0
2016-Aug-05 08:33N 33°42' W 118°08'0 0.0
2016-Aug-05 07:33N 33°42' W 118°08'0 0.0
2016-Aug-05 06:33N 33°42' W 118°08'0 0.0
2016-Aug-05 04:33N 33°42' W 118°08'0 0.0
2016-Aug-05 03:33N 33°42' W 118°08'0 0.0
2016-Aug-05 02:33N 33°42' W 118°08'0 0.0
2016-Aug-05 01:33N 33°42' W 118°08'0 0.1
2016-Aug-05 00:33N 33°42' W 118°08'0 0.1
2016-Aug-04 23:33N 33°42' W 118°08'0 0.0
2016-Aug-04 22:30N 33°42' W 118°08'0 0.1
2016-Aug-04 21:33N 33°42' W 118°08'0 0.0
2016-Aug-04 20:33N 33°42' W 118°08'0 0.0
2016-Aug-04 19:33N 33°42' W 118°08'0 0.0
2016-Aug-04 18:33N 33°42' W 118°08'0 0.0
2016-Aug-04 17:33N 33°42' W 118°08'0 0.0
2016-Aug-04 16:27N 33°42' W 118°08'0 0.1
2016-Aug-04 15:33N 33°42' W 118°08'0 0.0
2016-Aug-04 14:33N 33°42' W 118°08'0 0.0
2016-Aug-04 13:33N 33°42' W 118°08'0 0.0
2016-Aug-04 12:33N 33°42' W 118°08'0 0.1
2016-Aug-04 11:33N 33°42' W 118°08'0 0.0
2016-Aug-04 10:33N 33°42' W 118°08'0 0.0
2016-Aug-04 09:33N 33°42' W 118°08'0 0.0
2016-Aug-04 08:12N 33°42' W 118°08'0 0.0
2016-Aug-04 07:30N 33°42' W 118°08'0 0.0
2016-Aug-04 06:33N 33°42' W 118°08'0 0.0
2016-Aug-04 04:33N 33°42' W 118°08'0 0.0
2016-Aug-04 03:30N 33°42' W 118°08'0 0.0
2016-Aug-04 02:33N 33°42' W 118°08'3 3.2
2016-Aug-04 01:33N 33°44' W 118°12'3 3.0
2016-Aug-04 00:33N 33°46' W 118°13'0 0.0
2016-Aug-03 23:33N 33°46' W 118°13'0 0.0
2016-Aug-03 22:33N 33°46' W 118°13'0 0.0
2016-Aug-03 21:33N 33°46' W 118°13'0 0.0
2016-Aug-03 20:27N 33°46' W 118°13'0 0.0
2016-Aug-03 19:33N 33°46' W 118°13'0 0.0
2016-Aug-03 18:33N 33°46' W 118°13'0 0.0
2016-Aug-03 17:33N 33°46' W 118°13'0 0.0
2016-Aug-03 16:33N 33°46' W 118°13'0 0.0
2016-Aug-03 15:33N 33°46' W 118°13'0 0.0
2016-Aug-03 14:33N 33°46' W 118°13'0 0.0
2016-Aug-03 13:33N 33°46' W 118°13'2 2.0
2016-Aug-03 12:33N 33°44' W 118°13'7 6.7
2016-Aug-03 11:33N 33°38' W 118°10'4 3.9
2016-Aug-03 10:33N 33°34' W 118°09'5 5.5
2016-Aug-03 09:33N 33°29' W 118°07'7 7.2
2016-Aug-03 08:33N 33°22' W 118°04'7 7.2
2016-Aug-03 07:33N 33°15' W 118°02'7 7.1
2016-Aug-03 06:33N 33°08' W 118°00'17 8.4
2016-Aug-03 04:33N 32°52' W 117°57'7 7.1
2016-Aug-03 03:33N 32°45' W 117°56'8 8.4
2016-Aug-03 02:33N 32°36' W 117°54'9 8.6
2016-Aug-03 01:33N 32°28' W 117°52'9 9.2
2016-Aug-03 00:33N 32°19' W 117°50'1212.3
2016-Aug-02 23:33N 32°07' W 117°48'1212.2
2016-Aug-02 22:33N 31°55' W 117°45'1212.2
2016-Aug-02 21:33N 31°43' W 117°43'1212.2
2016-Aug-02 20:33N 31°31' W 117°41'1212.4
2016-Aug-02 19:33N 31°18' W 117°38'1313.1
2016-Aug-02 18:33N 31°05' W 117°36'1313.2
2016-Aug-02 17:33N 30°52' W 117°34'1313.2
2016-Aug-02 16:33N 30°39' W 117°31'1514.3
2016-Aug-02 15:29N 30°24' W 117°28'6615.4
2016-Aug-02 11:11N 29°19' W 117°15'914.8
2016-Aug-02 10:33N 29°10' W 117°13'1515.3
2016-Aug-02 09:33N 28°55' W 117°10'  
Track history (hours):
 
Tides and Currents Weather Stations Pressure Air Temp Water Temp Dewpoint Dewpoint Depression Visibility Wind Speed Wind Dir Waves Ship Positions

Zenith Leader

Last reported at 2016-Aug-12 03:13 UTC. Time now 2016-Aug-27 09:53 UTC.
Position N 35°30' W 127°26'.
Warning: this ship's position is 15 days out of date.

Length 200 m; draft 8 m.

Type: Cargo ship. MMSI: 235058697.

Date/timePositionNaut miles runAvg speedWind from/ knotsBaromVisibWave heightAir tempDewpointWater temp
2016-Aug-12 03:13N 35°30' W 127°26'21014.8
2016-Aug-11 13:03N 34°26' W 123°22'1015.7
2016-Aug-11 12:27N 34°26' W 123°10'1415.7
2016-Aug-11 11:33N 34°26' W 122°53'2015.7
2016-Aug-11 10:15N 34°26' W 122°29'1315.6
2016-Aug-11 09:27N 34°26' W 122°13'3315.4
2016-Aug-11 07:19N 34°26' W 121°34'1215.6
2016-Aug-11 06:33N 34°26' W 121°19'1615.8
2016-Aug-11 05:33N 34°26' W 120°60'1515.4
2016-Aug-11 04:33N 34°24' W 120°41'1515.0
2016-Aug-11 03:33N 34°20' W 120°24'1515.4
2016-Aug-11 02:33N 34°16' W 120°06'1515.5
2016-Aug-11 01:33N 34°12' W 119°48'1515.4
2016-Aug-11 00:33N 34°08' W 119°30'1313.0
2016-Aug-10 23:33N 34°07' W 119°14'2 1.9
2016-Aug-10 22:26N 34°09' W 119°12'0 0.0
2016-Aug-10 21:32N 34°09' W 119°12'0 0.0
2016-Aug-10 20:32N 34°09' W 119°12'0 0.0
2016-Aug-10 19:32N 34°09' W 119°12'0 0.0
2016-Aug-10 18:32N 34°09' W 119°12'0 0.0
2016-Aug-10 17:32N 34°09' W 119°12'0 0.0
2016-Aug-10 16:32N 34°09' W 119°12'0 0.0
2016-Aug-10 15:23N 34°09' W 119°12'0 0.0
2016-Aug-10 14:32N 34°09' W 119°12'0 0.0
2016-Aug-10 13:29N 34°09' W 119°12'0 0.0
2016-Aug-10 12:32N 34°09' W 119°12'0 0.0
2016-Aug-10 11:32N 34°09' W 119°12'0 0.0
2016-Aug-10 10:32N 34°09' W 119°12'0 0.0
2016-Aug-10 09:32N 34°09' W 119°12'0 0.0
2016-Aug-10 08:32N 34°09' W 119°12'0 0.0
2016-Aug-10 07:32N 34°09' W 119°12'0 0.0
2016-Aug-10 06:32N 34°09' W 119°12'0 0.0
2016-Aug-10 05:32N 34°09' W 119°12'0 0.0
2016-Aug-10 04:32N 34°09' W 119°12'0 0.0
2016-Aug-10 03:32N 34°09' W 119°12'0 0.0
2016-Aug-10 02:32N 34°09' W 119°12'0 0.0
2016-Aug-10 01:32N 34°09' W 119°12'0 0.1
2016-Aug-10 00:34N 34°09' W 119°12'5 4.6
2016-Aug-09 23:34N 34°05' W 119°14'7 6.6
2016-Aug-09 22:34N 34°01' W 119°08'8 8.0
2016-Aug-09 21:34N 33°57' W 118°59'8 7.9
2016-Aug-09 20:33N 33°53' W 118°51'7 6.9
2016-Aug-09 19:33N 33°49' W 118°44'8 8.2
2016-Aug-09 18:34N 33°45' W 118°35'9 8.8
2016-Aug-09 17:34N 33°41' W 118°26'9 8.7
2016-Aug-09 16:33N 33°38' W 118°16'8 8.3
2016-Aug-09 15:33N 33°33' W 118°08'9 9.3
2016-Aug-09 14:34N 33°24' W 118°05'9 9.3
2016-Aug-09 13:34N 33°15' W 118°02'9 9.2
2016-Aug-09 12:34N 33°06' W 117°60'8 8.2
2016-Aug-09 11:34N 32°58' W 117°58'0 0.4
2016-Aug-09 10:33N 32°58' W 117°58'0 0.4
2016-Aug-09 09:33N 32°58' W 117°57'1 0.5
2016-Aug-09 08:33N 32°58' W 117°57'1 0.5
2016-Aug-09 07:33N 32°58' W 117°56'1 0.3
2016-Aug-09 05:33N 32°57' W 117°55'0 0.0
2016-Aug-09 04:33N 32°57' W 117°55'0 0.1
2016-Aug-09 03:33N 32°57' W 117°56'0 0.4
2016-Aug-09 02:33N 32°57' W 117°56'1 0.6
2016-Aug-09 01:33N 32°58' W 117°57'2 1.8
2016-Aug-09 00:34N 32°58' W 117°54'6 6.2
2016-Aug-08 23:33N 32°59' W 117°47'1 0.8
2016-Aug-08 22:33N 32°59' W 117°48'1 0.8
2016-Aug-08 21:33N 32°59' W 117°49'1 1.0
2016-Aug-08 20:33N 32°59' W 117°50'1 1.3
2016-Aug-08 19:33N 32°59' W 117°52'1 1.5
2016-Aug-08 18:33N 32°59' W 117°54'1 1.3
2016-Aug-08 17:33N 32°58' W 117°55'1 1.0
2016-Aug-08 16:33N 32°58' W 117°56'6 5.7
2016-Aug-08 15:33N 32°55' W 117°50'2 2.3
2016-Aug-08 14:32N 32°54' W 117°48'1 0.6
2016-Aug-08 13:32N 32°54' W 117°48'1 0.6
2016-Aug-08 12:32N 32°54' W 117°49'0 0.5
2016-Aug-08 11:32N 32°53' W 117°49'0 0.3
2016-Aug-08 10:32N 32°53' W 117°50'1 0.6
2016-Aug-08 09:29N 32°53' W 117°50'1 0.7
2016-Aug-08 08:32N 32°52' W 117°50'1 0.7
2016-Aug-08 07:32N 32°51' W 117°50'1 0.6
2016-Aug-08 06:32N 32°51' W 117°50'0 0.3
2016-Aug-08 05:32N 32°51' W 117°50'0 0.4
2016-Aug-08 04:32N 32°50' W 117°50'0 0.3
2016-Aug-08 03:32N 32°50' W 117°50'1 0.6
2016-Aug-08 02:32N 32°50' W 117°49'1 0.8
2016-Aug-08 01:32N 32°51' W 117°49'1 0.8
2016-Aug-08 00:32N 32°52' W 117°49'1 0.8
2016-Aug-07 23:32N 32°53' W 117°50'1 0.9
2016-Aug-07 22:32N 32°53' W 117°50'1 0.9
2016-Aug-07 21:29N 32°54' W 117°51'1 0.9
2016-Aug-07 20:32N 32°55' W 117°52'1 1.1
2016-Aug-07 19:32N 32°55' W 117°53'1 0.9
2016-Aug-07 18:32N 32°56' W 117°54'1 0.7
2016-Aug-07 17:29N 32°56' W 117°55'1 0.7
2016-Aug-07 16:29N 32°56' W 117°55'1 0.6
2016-Aug-07 15:32N 32°56' W 117°56'1 0.8
2016-Aug-07 14:32N 32°56' W 117°57'1 0.8
2016-Aug-07 13:32N 32°56' W 117°58'1 0.6
2016-Aug-07 12:32N 32°57' W 117°59'1 0.5
2016-Aug-07 11:32N 32°57' W 117°59'0 0.3
2016-Aug-07 10:29N 32°57' W 117°59'0 0.2
2016-Aug-07 09:32N 32°57' W 117°60'0 0.2
2016-Aug-07 08:32N 32°57' W 117°60'0 0.4
2016-Aug-07 07:31N 32°58' W 117°59'1 0.6
2016-Aug-07 06:32N 32°58' W 117°59'1 0.6
2016-Aug-07 04:32N 32°60' W 117°59'0 0.4
2016-Aug-07 03:32N 32°60' W 117°59'3 3.4
2016-Aug-07 02:33N 32°58' W 117°56'1212.2
2016-Aug-07 01:33N 32°51' W 117°44'1 0.7
2016-Aug-07 00:33N 32°51' W 117°43'1 0.9
2016-Aug-06 23:33N 32°52' W 117°44'2 1.9
2016-Aug-06 22:33N 32°53' W 117°45'2 2.2
2016-Aug-06 21:33N 32°55' W 117°46'2 1.8
2016-Aug-06 20:33N 32°57' W 117°48'1 1.3
2016-Aug-06 19:33N 32°57' W 117°49'1 1.4
2016-Aug-06 18:33N 32°58' W 117°50'1 1.4
2016-Aug-06 17:33N 32°59' W 117°52'1 1.2
2016-Aug-06 16:33N 32°59' W 117°53'7 7.0
2016-Aug-06 15:33N 32°56' W 117°45'7 7.0
2016-Aug-06 14:32N 32°56' W 117°37'1 1.1
2016-Aug-06 13:32N 32°56' W 117°38'1 1.4
2016-Aug-06 12:32N 32°55' W 117°39'1 1.4
2016-Aug-06 11:32N 32°55' W 117°41'1 1.3
2016-Aug-06 10:32N 32°55' W 117°43'1 1.3
2016-Aug-06 09:32N 32°56' W 117°44'1 1.1
2016-Aug-06 08:32N 32°56' W 117°46'1 0.7
2016-Aug-06 07:32N 32°55' W 117°46'3 1.0
2016-Aug-06 04:34N 32°58' W 117°49'1010.2
2016-Aug-06 03:34N 33°06' W 117°55'9 9.4
2016-Aug-06 02:34N 33°14' W 118°02'9 9.3
2016-Aug-06 01:34N 33°22' W 118°08'20 6.7
2016-Aug-05 22:33N 33°42' W 118°08'0 0.0
2016-Aug-05 20:33N 33°42' W 118°08'0 0.0
2016-Aug-05 19:33N 33°42' W 118°08'0 0.0
2016-Aug-05 18:33N 33°42' W 118°08'0 0.0
2016-Aug-05 17:33N 33°42' W 118°08'0 0.0
2016-Aug-05 16:30N 33°42' W 118°08'0 0.0
2016-Aug-05 15:33N 33°42' W 118°08'0 0.0
2016-Aug-05 14:33N 33°42' W 118°08'0 0.0
2016-Aug-05 13:33N 33°42' W 118°08'0 0.0
2016-Aug-05 12:33N 33°42' W 118°08'0 0.1
2016-Aug-05 11:33N 33°42' W 118°08'0 0.0
2016-Aug-05 10:33N 33°42' W 118°08'0 0.0
2016-Aug-05 09:33N 33°42' W 118°08'0 0.0
2016-Aug-05 08:33N 33°42' W 118°08'0 0.0
2016-Aug-05 07:33N 33°42' W 118°08'0 0.0
2016-Aug-05 06:33N 33°42' W 118°08'0 0.0
2016-Aug-05 04:33N 33°42' W 118°08'0 0.0
2016-Aug-05 03:33N 33°42' W 118°08'0 0.0
2016-Aug-05 02:33N 33°42' W 118°08'0 0.0
2016-Aug-05 01:33N 33°42' W 118°08'0 0.1
2016-Aug-05 00:33N 33°42' W 118°08'0 0.1
2016-Aug-04 23:33N 33°42' W 118°08'0 0.0
2016-Aug-04 22:30N 33°42' W 118°08'0 0.1
2016-Aug-04 21:33N 33°42' W 118°08'0 0.0
2016-Aug-04 20:33N 33°42' W 118°08'0 0.0
2016-Aug-04 19:33N 33°42' W 118°08'0 0.0
2016-Aug-04 18:33N 33°42' W 118°08'0 0.0
2016-Aug-04 17:33N 33°42' W 118°08'0 0.0
2016-Aug-04 16:27N 33°42' W 118°08'0 0.1
2016-Aug-04 15:33N 33°42' W 118°08'0 0.0
2016-Aug-04 14:33N 33°42' W 118°08'0 0.0
2016-Aug-04 13:33N 33°42' W 118°08'0 0.0
2016-Aug-04 12:33N 33°42' W 118°08'0 0.1
2016-Aug-04 11:33N 33°42' W 118°08'0 0.0
2016-Aug-04 10:33N 33°42' W 118°08'0 0.0
2016-Aug-04 09:33N 33°42' W 118°08'0 0.0
2016-Aug-04 08:12N 33°42' W 118°08'0 0.0
2016-Aug-04 07:30N 33°42' W 118°08'0 0.0
2016-Aug-04 06:33N 33°42' W 118°08'0 0.0
2016-Aug-04 04:33N 33°42' W 118°08'0 0.0
2016-Aug-04 03:30N 33°42' W 118°08'0 0.0
2016-Aug-04 02:33N 33°42' W 118°08'3 3.2
2016-Aug-04 01:33N 33°44' W 118°12'3 3.0
2016-Aug-04 00:33N 33°46' W 118°13'0 0.0
2016-Aug-03 23:33N 33°46' W 118°13'0 0.0
2016-Aug-03 22:33N 33°46' W 118°13'0 0.0
2016-Aug-03 21:33N 33°46' W 118°13'0 0.0
2016-Aug-03 20:27N 33°46' W 118°13'0 0.0
2016-Aug-03 19:33N 33°46' W 118°13'0 0.0
2016-Aug-03 18:33N 33°46' W 118°13'0 0.0
2016-Aug-03 17:33N 33°46' W 118°13'0 0.0
2016-Aug-03 16:33N 33°46' W 118°13'0 0.0
2016-Aug-03 15:33N 33°46' W 118°13'0 0.0
2016-Aug-03 14:33N 33°46' W 118°13'0 0.0
2016-Aug-03 13:33N 33°46' W 118°13'2 2.0
2016-Aug-03 12:33N 33°44' W 118°13'7 6.7
2016-Aug-03 11:33N 33°38' W 118°10'4 3.9
2016-Aug-03 10:33N 33°34' W 118°09'5 5.5
2016-Aug-03 09:33N 33°29' W 118°07'7 7.2
2016-Aug-03 08:33N 33°22' W 118°04'7 7.2
2016-Aug-03 07:33N 33°15' W 118°02'7 7.1
2016-Aug-03 06:33N 33°08' W 118°00'17 8.4
2016-Aug-03 04:33N 32°52' W 117°57'7 7.1
2016-Aug-03 03:33N 32°45' W 117°56'8 8.4
2016-Aug-03 02:33N 32°36' W 117°54'9 8.6
2016-Aug-03 01:33N 32°28' W 117°52'9 9.2
2016-Aug-03 00:33N 32°19' W 117°50'1212.3
2016-Aug-02 23:33N 32°07' W 117°48'1212.2
2016-Aug-02 22:33N 31°55' W 117°45'1212.2
2016-Aug-02 21:33N 31°43' W 117°43'1212.2
2016-Aug-02 20:33N 31°31' W 117°41'1212.4
2016-Aug-02 19:33N 31°18' W 117°38'1313.1
2016-Aug-02 18:33N 31°05' W 117°36'1313.2
2016-Aug-02 17:33N 30°52' W 117°34'1313.2
2016-Aug-02 16:33N 30°39' W 117°31'1514.3
2016-Aug-02 15:29N 30°24' W 117°28'6615.4
2016-Aug-02 11:11N 29°19' W 117°15'914.8
2016-Aug-02 10:33N 29°10' W 117°13'1515.3
2016-Aug-02 09:33N 28°55' W 117°10'  

Dump ship's entire track history